createdAt,value
2017-04-01T00:01:11.865Z,0
2017-04-01T00:02:25.106Z,0
2017-04-01T00:03:38.326Z,0
2017-04-01T00:04:51.034Z,0
2017-04-01T00:06:04.291Z,0
2017-04-01T00:07:17.515Z,0
2017-04-01T00:08:30.223Z,0
2017-04-01T00:09:43.470Z,0
2017-04-01T00:10:56.212Z,0
2017-04-01T00:12:08.440Z,0
2017-04-01T00:13:21.165Z,0
2017-04-01T00:14:33.912Z,0
2017-04-01T00:15:46.626Z,0
2017-04-01T00:16:59.833Z,0
2017-04-01T00:18:13.105Z,0
2017-04-01T00:19:25.295Z,0
2017-04-01T00:20:38.558Z,0
2017-04-01T00:21:51.803Z,0
2017-04-01T00:23:05.042Z,0
2017-04-01T00:24:17.245Z,0
2017-04-01T00:25:30.480Z,0
2017-04-01T00:26:43.733Z,0
2017-04-01T00:27:56.955Z,0
2017-04-01T00:29:10.170Z,0
2017-04-01T00:30:23.436Z,0
2017-04-01T00:31:36.149Z,0
2017-04-01T00:32:49.377Z,0
2017-04-01T00:34:02.605Z,0
2017-04-01T00:35:15.833Z,0
2017-04-01T00:36:29.127Z,0
2017-04-01T00:37:41.820Z,0
2017-04-01T00:38:55.060Z,0
2017-04-01T00:40:07.782Z,0
2017-04-01T00:41:21.058Z,0
2017-04-01T00:42:34.314Z,0
2017-04-01T00:43:47.871Z,0
2017-04-01T00:45:01.095Z,0
2017-04-01T00:46:14.338Z,0
2017-04-01T00:47:27.043Z,0
2017-04-01T00:48:39.276Z,0
2017-04-01T00:49:52.471Z,0
2017-04-01T00:51:05.186Z,0
2017-04-01T00:52:18.431Z,0
2017-04-01T00:53:31.626Z,0
2017-04-01T00:54:44.351Z,0
2017-04-01T00:55:57.615Z,0
2017-04-01T00:57:10.345Z,0
2017-04-01T00:58:23.065Z,0
2017-04-01T00:59:35.764Z,0
2017-04-01T01:00:48.504Z,0
2017-04-01T01:02:01.740Z,0
2017-04-01T01:03:14.967Z,0
2017-04-01T01:04:28.206Z,0
2017-04-01T01:05:41.478Z,0
2017-04-01T01:06:54.704Z,0
2017-04-01T01:08:07.916Z,0
2017-04-01T01:09:20.606Z,0
2017-04-01T01:10:33.843Z,0
2017-04-01T01:11:46.556Z,0
2017-04-01T01:12:59.269Z,0
2017-04-01T01:14:12.493Z,0
2017-04-01T01:15:25.711Z,0
2017-04-01T01:16:38.917Z,0
2017-04-01T01:17:51.626Z,0
2017-04-01T01:19:04.881Z,0
2017-04-01T01:20:18.090Z,0
2017-04-01T01:21:31.330Z,0
2017-04-01T01:22:43.514Z,0
2017-04-01T01:23:56.729Z,0
2017-04-01T01:25:09.931Z,0
2017-04-01T01:26:23.143Z,0
2017-04-01T01:27:36.392Z,0
2017-04-01T01:28:49.619Z,0
2017-04-01T01:30:02.865Z,0
2017-04-01T01:31:16.130Z,0
2017-04-01T01:32:29.386Z,0
2017-04-01T01:33:42.606Z,0
2017-04-01T01:34:55.863Z,0
2017-04-01T01:36:08.594Z,0
2017-04-01T01:37:21.829Z,0
2017-04-01T01:38:35.062Z,0
2017-04-01T01:39:47.804Z,0
2017-04-01T01:40:59.985Z,0
2017-04-01T01:42:13.231Z,0
2017-04-01T01:43:26.446Z,0
2017-04-01T01:44:39.687Z,0
2017-04-01T01:45:52.933Z,0
2017-04-01T01:47:05.625Z,0
2017-04-01T01:48:18.386Z,0
2017-04-01T01:49:31.640Z,0
2017-04-01T01:50:44.866Z,0
2017-04-01T01:51:57.565Z,0
2017-04-01T01:53:10.852Z,0
2017-04-01T01:54:24.068Z,0
2017-04-01T01:55:37.272Z,0
2017-04-01T01:56:50.488Z,0
2017-04-01T01:58:03.711Z,0
2017-04-01T01:59:16.944Z,0
2017-04-01T02:00:29.652Z,0
2017-04-01T02:01:42.917Z,0
2017-04-01T02:02:56.131Z,0
2017-04-01T02:04:08.308Z,0
2017-04-01T02:05:21.562Z,0
2017-04-01T02:06:34.324Z,0
2017-04-01T02:07:47.605Z,0
2017-04-01T02:09:00.862Z,0
2017-04-01T02:10:14.129Z,0
2017-04-01T02:11:26.835Z,0
2017-04-01T02:12:39.582Z,0
2017-04-01T02:13:52.803Z,0
2017-04-01T02:15:05.558Z,0
2017-04-01T02:16:18.779Z,0
2017-04-01T02:17:32.011Z,0
2017-04-01T02:18:45.227Z,0
2017-04-01T02:19:58.477Z,0
2017-04-01T02:21:11.672Z,0
2017-04-01T02:22:24.913Z,0
2017-04-01T02:23:37.630Z,0
2017-04-01T02:24:49.805Z,0
2017-04-01T02:26:03.034Z,0
2017-04-01T02:27:16.252Z,0
2017-04-01T02:28:29.484Z,0
2017-04-01T02:29:42.707Z,0
2017-04-01T02:30:55.938Z,0
2017-04-01T02:32:09.191Z,0
2017-04-01T02:33:22.407Z,0
2017-04-01T02:34:35.111Z,0
2017-04-01T02:35:47.347Z,0
2017-04-01T02:37:00.039Z,0
2017-04-01T02:38:13.293Z,0
2017-04-01T02:39:26.556Z,0
2017-04-01T02:40:39.850Z,0
2017-04-01T02:41:52.620Z,0
2017-04-01T02:43:05.845Z,0
2017-04-01T02:44:19.070Z,0
2017-04-01T02:45:31.295Z,0
2017-04-01T02:46:43.482Z,0
2017-04-01T02:47:56.719Z,0
2017-04-01T02:49:09.959Z,0
2017-04-01T02:50:22.146Z,0
2017-04-01T02:51:35.375Z,0
2017-04-01T02:52:47.039Z,0
2017-04-01T02:54:00.257Z,0
2017-04-01T02:55:13.452Z,0
2017-04-01T02:56:26.702Z,0
2017-04-01T02:57:39.438Z,0
2017-04-01T02:58:51.619Z,0
2017-04-01T03:00:04.371Z,0
2017-04-01T03:01:17.633Z,0
2017-04-01T03:02:30.837Z,0
2017-04-01T03:03:44.045Z,0
2017-04-01T03:04:57.293Z,0
2017-04-01T03:06:10.037Z,0
2017-04-01T03:07:22.790Z,0
2017-04-01T03:08:36.030Z,0
2017-04-01T03:09:49.249Z,0
2017-04-01T03:11:02.488Z,0
2017-04-01T03:12:15.238Z,0
2017-04-01T03:13:28.470Z,0
2017-04-01T03:14:41.673Z,0
2017-04-01T03:15:54.905Z,0
2017-04-01T03:17:08.150Z,0
2017-04-01T03:18:20.338Z,0
2017-04-01T03:19:33.543Z,0
2017-04-01T03:20:46.774Z,0
2017-04-01T03:21:59.973Z,0
2017-04-01T03:23:12.750Z,0
2017-04-01T03:24:25.999Z,0
2017-04-01T03:25:38.222Z,0
2017-04-01T03:26:51.461Z,0
2017-04-01T03:28:04.694Z,0
2017-04-01T03:29:17.915Z,0
2017-04-01T03:30:31.153Z,0
2017-04-01T03:31:44.366Z,0
2017-04-01T03:32:56.568Z,0
2017-04-01T03:34:09.821Z,0
2017-04-01T03:35:23.098Z,0
2017-04-01T03:36:35.815Z,0
2017-04-01T03:37:49.034Z,0
2017-04-01T03:39:01.748Z,0
2017-04-01T03:40:14.452Z,0
2017-04-01T03:41:27.179Z,0
2017-04-01T03:42:40.441Z,0
2017-04-01T03:43:53.675Z,0
2017-04-01T03:45:06.923Z,0
2017-04-01T03:46:19.634Z,0
2017-04-01T03:47:32.849Z,0
2017-04-01T03:48:46.068Z,0
2017-04-01T03:49:59.376Z,0
2017-04-01T03:51:12.128Z,0
2017-04-01T03:52:25.350Z,0
2017-04-01T03:53:38.037Z,0
2017-04-01T03:54:50.739Z,0
2017-04-01T03:56:03.944Z,0
2017-04-01T03:57:16.653Z,0
2017-04-01T03:58:29.856Z,0
2017-04-01T03:59:43.073Z,0
2017-04-01T04:00:56.325Z,0
2017-04-01T04:02:09.558Z,0
2017-04-01T04:03:22.793Z,0
2017-04-01T04:04:36.013Z,0
2017-04-01T04:05:49.250Z,0
2017-04-01T04:07:02.504Z,0
2017-04-01T04:08:15.186Z,0
2017-04-01T04:09:28.394Z,0
2017-04-01T04:10:41.663Z,0
2017-04-01T04:11:53.874Z,0
2017-04-01T04:13:06.582Z,0
2017-04-01T04:14:20.085Z,0
2017-04-01T04:15:33.337Z,0
2017-04-01T04:16:46.574Z,0
2017-04-01T04:17:59.801Z,0
2017-04-01T04:19:13.017Z,0
2017-04-01T04:20:26.277Z,0
2017-04-01T04:21:39.492Z,0
2017-04-01T04:22:52.773Z,0
2017-04-01T04:24:05.990Z,0
2017-04-01T04:25:19.213Z,0
2017-04-01T04:26:31.953Z,0
2017-04-01T04:27:45.192Z,0
2017-04-01T04:28:58.449Z,0
2017-04-01T04:30:11.676Z,0
2017-04-01T04:31:24.878Z,0
2017-04-01T04:32:37.578Z,0
2017-04-01T04:33:50.780Z,0
2017-04-01T04:35:04.002Z,0
2017-04-01T04:36:16.694Z,0
2017-04-01T04:37:29.409Z,0
2017-04-01T04:38:42.665Z,0
2017-04-01T04:39:55.891Z,0
2017-04-01T04:41:09.117Z,0
2017-04-01T04:42:22.390Z,0
2017-04-01T04:43:35.600Z,0
2017-04-01T04:44:48.879Z,0
2017-04-01T04:46:01.590Z,0
2017-04-01T04:47:14.799Z,0
2017-04-01T04:48:28.056Z,0
2017-04-01T04:49:41.270Z,0
2017-04-01T04:50:54.512Z,0
2017-04-01T04:52:07.770Z,0
2017-04-01T04:53:20.481Z,0
2017-04-01T04:54:33.716Z,0
2017-04-01T04:55:46.951Z,0
2017-04-01T04:56:59.676Z,0
2017-04-01T04:58:12.948Z,0
2017-04-01T04:59:26.186Z,0
2017-04-01T05:00:39.433Z,0
2017-04-01T05:01:52.140Z,0
2017-04-01T05:03:05.395Z,0
2017-04-01T05:04:18.142Z,0
2017-04-01T05:05:31.352Z,0
2017-04-01T05:06:44.104Z,0
2017-04-01T05:07:57.294Z,0
2017-04-01T05:09:10.486Z,0
2017-04-01T05:10:23.724Z,0
2017-04-01T05:11:36.987Z,0
2017-04-01T05:12:50.244Z,0
2017-04-01T05:14:02.960Z,0
2017-04-01T05:15:16.200Z,0
2017-04-01T05:16:27.909Z,0
2017-04-01T05:17:41.188Z,0
2017-04-01T05:18:53.920Z,0
2017-04-01T05:20:07.132Z,0
2017-04-01T05:21:19.848Z,0
2017-04-01T05:22:33.069Z,0
2017-04-01T05:23:45.751Z,0
2017-04-01T05:24:58.954Z,0
2017-04-01T05:26:12.162Z,0
2017-04-01T05:27:25.390Z,0
2017-04-01T05:28:38.603Z,0
2017-04-01T05:29:51.844Z,0
2017-04-01T05:31:05.091Z,0
2017-04-01T05:32:17.854Z,0
2017-04-01T05:33:31.084Z,0
2017-04-01T05:34:43.777Z,0
2017-04-01T05:35:56.487Z,0
2017-04-01T05:37:09.737Z,0
2017-04-01T05:38:22.468Z,0
2017-04-01T05:39:35.709Z,0
2017-04-01T05:40:48.989Z,0
2017-04-01T05:42:02.219Z,0
2017-04-01T05:43:15.448Z,0
2017-04-01T05:44:27.671Z,0
2017-04-01T05:45:40.953Z,0
2017-04-01T05:46:54.269Z,0
2017-04-01T05:48:06.481Z,0
2017-04-01T05:49:19.691Z,0
2017-04-01T05:50:32.947Z,0
2017-04-01T05:51:46.190Z,0
2017-04-01T05:52:59.415Z,0
2017-04-01T05:54:11.115Z,0
2017-04-01T05:55:24.385Z,0
2017-04-01T05:56:37.652Z,0
2017-04-01T05:57:50.902Z,0
2017-04-01T05:59:04.135Z,0
2017-04-01T06:00:16.831Z,0
2017-04-01T06:01:30.086Z,0
2017-04-01T06:02:43.312Z,0
2017-04-01T06:03:56.735Z,0
2017-04-01T06:05:09.957Z,0
2017-04-01T06:06:22.696Z,0
2017-04-01T06:07:35.938Z,0
2017-04-01T06:08:49.163Z,0
2017-04-01T06:10:02.351Z,0
2017-04-01T06:11:15.078Z,0
2017-04-01T06:12:28.323Z,0
2017-04-01T06:13:41.553Z,0
2017-04-01T06:14:54.325Z,0
2017-04-01T06:16:07.585Z,0
2017-04-01T06:17:20.317Z,0
2017-04-01T06:18:33.553Z,0
2017-04-01T06:19:46.806Z,0
2017-04-01T06:21:00.012Z,0
2017-04-01T06:22:13.249Z,0
2017-04-01T06:23:26.482Z,0
2017-04-01T06:24:39.700Z,0
2017-04-01T06:25:52.938Z,0
2017-04-01T06:27:06.174Z,0
2017-04-01T06:28:19.367Z,0
2017-04-01T06:29:32.606Z,0
2017-04-01T06:30:45.833Z,0
2017-04-01T06:31:59.071Z,0
2017-04-01T06:33:12.313Z,0
2017-04-01T06:34:24.998Z,0
2017-04-01T06:35:37.707Z,0
2017-04-01T06:36:50.906Z,0
2017-04-01T06:38:02.583Z,0
2017-04-01T06:39:15.854Z,0
2017-04-01T06:40:29.099Z,0
2017-04-01T06:41:42.342Z,0
2017-04-01T06:42:55.056Z,0
2017-04-01T06:44:08.284Z,0
2017-04-01T06:45:21.045Z,0
2017-04-01T06:46:34.253Z,0
2017-04-01T06:47:47.500Z,0
2017-04-01T06:49:00.722Z,0
2017-04-01T06:50:13.473Z,0
2017-04-01T06:51:26.175Z,0
2017-04-01T06:52:39.406Z,0
2017-04-01T06:53:52.152Z,0
2017-04-01T06:55:05.407Z,0
2017-04-01T06:56:17.672Z,0
2017-04-01T06:57:30.904Z,0
2017-04-01T06:58:44.131Z,0
2017-04-01T06:59:57.385Z,0
2017-04-01T07:01:10.104Z,0
2017-04-01T07:02:23.378Z,0
2017-04-01T07:03:35.085Z,0
2017-04-01T07:04:48.346Z,0
2017-04-01T07:06:01.639Z,0
2017-04-01T07:07:14.360Z,0
2017-04-01T07:08:27.597Z,0
2017-04-01T07:09:40.306Z,0
2017-04-01T07:10:53.514Z,0
2017-04-01T07:12:06.764Z,0
2017-04-01T07:13:19.979Z,0
2017-04-01T07:14:33.190Z,0
2017-04-01T07:15:46.405Z,0
2017-04-01T07:16:59.603Z,0
2017-04-01T07:18:12.842Z,0
2017-04-01T07:19:26.079Z,0
2017-04-01T07:20:38.802Z,0
2017-04-01T07:21:50.998Z,0
2017-04-01T07:23:03.723Z,0
2017-04-01T07:24:16.974Z,0
2017-04-01T07:25:30.197Z,0
2017-04-01T07:26:43.462Z,0
2017-04-01T07:27:56.705Z,0
2017-04-01T07:29:08.938Z,0
2017-04-01T07:30:21.679Z,0
2017-04-01T07:31:34.908Z,0
2017-04-01T07:32:48.149Z,0
2017-04-01T07:34:00.858Z,0
2017-04-01T07:35:13.575Z,0
2017-04-01T07:36:26.807Z,0
2017-04-01T07:37:40.046Z,0
2017-04-01T07:38:53.310Z,0
2017-04-01T07:40:05.542Z,0
2017-04-01T07:41:18.236Z,0
2017-04-01T07:42:31.483Z,0
2017-04-01T07:43:44.681Z,0
2017-04-01T07:44:57.882Z,0
2017-04-01T07:46:11.087Z,0
2017-04-01T07:47:24.338Z,0
2017-04-01T07:48:37.597Z,0
2017-04-01T07:49:50.325Z,0
2017-04-01T07:51:03.029Z,0
2017-04-01T07:52:15.759Z,0
2017-04-01T07:53:28.983Z,0
2017-04-01T07:54:42.234Z,0
2017-04-01T07:55:54.959Z,0
2017-04-01T07:57:08.189Z,0
2017-04-01T07:58:21.483Z,0
2017-04-01T07:59:34.177Z,0
2017-04-01T08:00:46.362Z,0
2017-04-01T08:01:59.082Z,0
2017-04-01T08:03:12.328Z,0
2017-04-01T08:04:25.544Z,0
2017-04-01T08:05:38.784Z,0
2017-04-01T08:06:52.030Z,0
2017-04-01T08:08:04.756Z,0
2017-04-01T08:09:17.474Z,0
2017-04-01T08:10:30.192Z,0
2017-04-01T08:11:43.436Z,0
2017-04-01T08:12:56.669Z,0
2017-04-01T08:14:09.413Z,0
2017-04-01T08:15:22.655Z,0
2017-04-01T08:16:35.879Z,0
2017-04-01T08:17:49.308Z,0
2017-04-01T08:19:02.530Z,0
2017-04-01T08:20:15.270Z,0
2017-04-01T08:21:28.528Z,0
2017-04-01T08:22:41.771Z,0
2017-04-01T08:23:55.018Z,0
2017-04-01T08:25:08.278Z,0
2017-04-01T08:26:21.571Z,0
2017-04-01T08:27:34.806Z,0
2017-04-01T08:28:48.055Z,0
2017-04-01T08:30:01.318Z,0
2017-04-01T08:31:14.535Z,0
2017-04-01T08:32:27.765Z,0
2017-04-01T08:33:41.065Z,0
2017-04-01T08:34:53.783Z,0
2017-04-01T08:36:07.002Z,0
2017-04-01T08:37:19.738Z,0
2017-04-01T08:38:32.993Z,0
2017-04-01T08:39:45.748Z,0
2017-04-01T08:40:59.011Z,0
2017-04-01T08:42:12.219Z,0
2017-04-01T08:43:25.421Z,0
2017-04-01T08:44:38.667Z,0
2017-04-01T08:45:51.412Z,0
2017-04-01T08:47:04.630Z,0
2017-04-01T08:48:17.864Z,0
2017-04-01T08:49:31.085Z,0
2017-04-01T08:50:44.292Z,0
2017-04-01T08:51:57.515Z,0
2017-04-01T08:53:10.724Z,0
2017-04-01T08:54:23.955Z,0
2017-04-01T08:55:37.177Z,0
2017-04-01T08:56:50.414Z,0
2017-04-01T08:58:03.696Z,0
2017-04-01T08:59:16.926Z,0
2017-04-01T09:00:29.648Z,0
2017-04-01T09:01:42.875Z,0
2017-04-01T09:02:56.092Z,0
2017-04-01T09:04:08.312Z,0
2017-04-01T09:05:21.527Z,0
2017-04-01T09:06:34.744Z,0
2017-04-01T09:07:47.928Z,0
2017-04-01T09:09:01.167Z,5
2017-04-01T09:10:14.414Z,5
2017-04-01T09:11:27.686Z,5
2017-04-01T09:12:40.934Z,10
2017-04-01T09:13:54.179Z,10
2017-04-01T09:15:07.409Z,15
2017-04-01T09:16:20.665Z,15
2017-04-01T09:17:33.400Z,20
2017-04-01T09:18:46.601Z,20
2017-04-01T09:19:59.828Z,25
2017-04-01T09:21:13.047Z,30
2017-04-01T09:22:25.778Z,30
2017-04-01T09:23:39.006Z,30
2017-04-01T09:24:52.259Z,35
2017-04-01T09:26:04.944Z,40
2017-04-01T09:27:18.176Z,50
2017-04-01T09:28:31.380Z,55
2017-04-01T09:29:44.645Z,65
2017-04-01T09:30:57.889Z,75
2017-04-01T09:32:11.143Z,80
2017-04-01T09:33:24.350Z,85
2017-04-01T09:34:36.513Z,90
2017-04-01T09:35:49.759Z,105
2017-04-01T09:37:02.964Z,120
2017-04-01T09:38:16.200Z,130
2017-04-01T09:39:28.916Z,135
2017-04-01T09:40:42.116Z,140
2017-04-01T09:41:55.349Z,145
2017-04-01T09:43:08.060Z,165
2017-04-01T09:44:21.304Z,180
2017-04-01T09:45:34.027Z,220
2017-04-01T09:46:46.793Z,245
2017-04-01T09:47:59.477Z,245
2017-04-01T09:49:12.690Z,205
2017-04-01T09:50:25.392Z,375
2017-04-01T09:51:38.106Z,240
2017-04-01T09:52:51.352Z,230
2017-04-01T09:54:04.595Z,220
2017-04-01T09:55:16.823Z,365
2017-04-01T09:56:29.545Z,340
2017-04-01T09:57:42.790Z,485
2017-04-01T09:58:54.975Z,680
2017-04-01T10:00:08.234Z,725
2017-04-01T10:01:21.476Z,305
2017-04-01T10:02:34.703Z,370
2017-04-01T10:03:47.411Z,300
2017-04-01T10:05:00.119Z,790
2017-04-01T10:06:12.351Z,350
2017-04-01T10:07:25.579Z,630
2017-04-01T10:08:38.816Z,955
2017-04-01T10:09:52.048Z,925
2017-04-01T10:11:04.759Z,400
2017-04-01T10:12:17.473Z,345
2017-04-01T10:13:30.684Z,305
2017-04-01T10:14:43.918Z,330
2017-04-01T10:15:57.128Z,420
2017-04-01T10:17:09.844Z,385
2017-04-01T10:18:22.565Z,365
2017-04-01T10:19:35.802Z,325
2017-04-01T10:20:49.015Z,325
2017-04-01T10:22:01.706Z,380
2017-04-01T10:23:14.400Z,365
2017-04-01T10:24:27.623Z,345
2017-04-01T10:25:40.881Z,350
2017-04-01T10:26:54.107Z,370
2017-04-01T10:28:07.328Z,350
2017-04-01T10:29:20.547Z,320
2017-04-01T10:30:33.755Z,325
2017-04-01T10:31:46.980Z,340
2017-04-01T10:33:00.232Z,360
2017-04-01T10:34:12.952Z,370
2017-04-01T10:35:26.209Z,385
2017-04-01T10:36:39.453Z,395
2017-04-01T10:37:52.701Z,495
2017-04-01T10:39:05.961Z,470
2017-04-01T10:40:19.188Z,370
2017-04-01T10:41:32.465Z,380
2017-04-01T10:42:45.188Z,390
2017-04-01T10:43:58.397Z,390
2017-04-01T10:45:11.679Z,395
2017-04-01T10:46:24.937Z,390
2017-04-01T10:47:37.641Z,440
2017-04-01T10:48:50.862Z,465
2017-04-01T10:50:04.099Z,470
2017-04-01T10:51:17.311Z,500
2017-04-01T10:52:29.987Z,495
2017-04-01T10:53:43.192Z,490
2017-04-01T10:54:56.386Z,470
2017-04-01T10:56:09.110Z,440
2017-04-01T10:57:21.836Z,480
2017-04-01T10:58:35.148Z,510
2017-04-01T10:59:48.379Z,515
2017-04-01T11:01:01.606Z,495
2017-04-01T11:02:14.830Z,580
2017-04-01T11:03:27.562Z,810
2017-04-01T11:04:40.782Z,1690
2017-04-01T11:05:54.037Z,785
2017-04-01T11:07:07.307Z,525
2017-04-01T11:08:20.552Z,510
2017-04-01T11:09:32.778Z,460
2017-04-01T11:10:45.997Z,435
2017-04-01T11:11:59.204Z,460
2017-04-01T11:13:11.946Z,485
2017-04-01T11:14:24.641Z,515
2017-04-01T11:15:37.838Z,485
2017-04-01T11:16:51.042Z,465
2017-04-01T11:18:03.769Z,500
2017-04-01T11:19:15.441Z,615
2017-04-01T11:20:27.670Z,740
2017-04-01T11:21:40.908Z,1715
2017-04-01T11:22:54.135Z,840
2017-04-01T11:24:07.347Z,740
2017-04-01T11:25:20.607Z,730
2017-04-01T11:26:33.871Z,690
2017-04-01T11:27:47.117Z,665
2017-04-01T11:28:59.806Z,740
2017-04-01T11:30:13.022Z,795
2017-04-01T11:31:26.621Z,785
2017-04-01T11:32:39.868Z,785
2017-04-01T11:33:53.100Z,800
2017-04-01T11:35:05.310Z,790
2017-04-01T11:36:18.064Z,810
2017-04-01T11:37:31.290Z,820
2017-04-01T11:38:44.504Z,930
2017-04-01T11:39:57.756Z,1015
2017-04-01T11:41:10.473Z,1045
2017-04-01T11:42:23.692Z,1585
2017-04-01T11:43:36.905Z,2615
2017-04-01T11:44:50.142Z,2635
2017-04-01T11:46:03.389Z,2855
2017-04-01T11:47:16.181Z,2930
2017-04-01T11:48:29.413Z,2680
2017-04-01T11:49:42.636Z,2780
2017-04-01T11:50:55.881Z,2395
2017-04-01T11:52:08.609Z,1765
2017-04-01T11:53:21.356Z,1030
2017-04-01T11:54:34.605Z,1970
2017-04-01T11:55:47.320Z,1885
2017-04-01T11:57:00.516Z,1635
2017-04-01T11:58:13.227Z,1625
2017-04-01T11:59:26.482Z,1605
2017-04-01T12:00:39.713Z,1655
2017-04-01T12:01:52.947Z,1755
2017-04-01T12:03:06.180Z,1465
2017-04-01T12:04:18.904Z,1765
2017-04-01T12:05:32.132Z,1805
2017-04-01T12:06:44.843Z,1045
2017-04-01T12:07:58.050Z,1080
2017-04-01T12:09:11.382Z,925
2017-04-01T12:10:24.594Z,930
2017-04-01T12:11:37.835Z,855
2017-04-01T12:12:50.558Z,895
2017-04-01T12:14:03.839Z,1690
2017-04-01T12:15:17.085Z,1185
2017-04-01T12:16:30.311Z,1470
2017-04-01T12:17:43.543Z,1325
2017-04-01T12:18:56.792Z,930
2017-04-01T12:20:09.527Z,1260
2017-04-01T12:21:21.714Z,1275
2017-04-01T12:22:34.942Z,1275
2017-04-01T12:23:47.657Z,1255
2017-04-01T12:25:00.897Z,1295
2017-04-01T12:26:14.143Z,1325
2017-04-01T12:27:27.364Z,1300
2017-04-01T12:28:40.594Z,1360
2017-04-01T12:29:53.807Z,1320
2017-04-01T12:31:07.094Z,1340
2017-04-01T12:32:18.822Z,1385
2017-04-01T12:33:31.536Z,1445
2017-04-01T12:34:44.784Z,760
2017-04-01T12:35:58.011Z,1520
2017-04-01T12:37:11.252Z,880
2017-04-01T12:38:24.507Z,875
2017-04-01T12:39:37.763Z,1485
2017-04-01T12:40:50.989Z,1500
2017-04-01T12:42:04.221Z,730
2017-04-01T12:43:16.966Z,1575
2017-04-01T12:44:29.709Z,925
2017-04-01T12:45:42.963Z,1540
2017-04-01T12:46:56.181Z,1565
2017-04-01T12:48:09.400Z,1255
2017-04-01T12:49:22.126Z,1650
2017-04-01T12:50:35.391Z,1440
2017-04-01T12:51:48.632Z,1640
2017-04-01T12:53:01.882Z,1775
2017-04-01T12:54:14.604Z,1805
2017-04-01T12:55:26.839Z,1900
2017-04-01T12:56:40.082Z,1960
2017-04-01T12:57:53.326Z,2065
2017-04-01T12:59:06.570Z,1955
2017-04-01T13:00:19.802Z,1765
2017-04-01T13:01:32.003Z,1755
2017-04-01T13:02:45.247Z,1700
2017-04-01T13:03:58.495Z,905
2017-04-01T13:05:11.748Z,700
2017-04-01T13:06:24.528Z,685
2017-04-01T13:07:37.788Z,685
2017-04-01T13:08:50.018Z,655
2017-04-01T13:10:02.732Z,640
2017-04-01T13:11:15.967Z,745
2017-04-01T13:12:28.184Z,885
2017-04-01T13:13:41.392Z,1005
2017-04-01T13:14:54.633Z,1160
2017-04-01T13:16:07.900Z,1455
2017-04-01T13:17:21.177Z,1675
2017-04-01T13:18:34.414Z,1900
2017-04-01T13:19:47.648Z,1550
2017-04-01T13:21:00.882Z,1155
2017-04-01T13:22:13.593Z,2000
2017-04-01T13:23:25.836Z,1975
2017-04-01T13:24:39.147Z,1930
2017-04-01T13:25:52.382Z,870
2017-04-01T13:27:05.652Z,765
2017-04-01T13:28:18.387Z,680
2017-04-01T13:29:31.113Z,600
2017-04-01T13:30:44.386Z,620
2017-04-01T13:31:57.603Z,575
2017-04-01T13:33:10.837Z,595
2017-04-01T13:34:24.062Z,725
2017-04-01T13:35:37.273Z,870
2017-04-01T13:36:50.002Z,1015
2017-04-01T13:38:03.222Z,1290
2017-04-01T13:39:16.474Z,3045
2017-04-01T13:40:28.692Z,2080
2017-04-01T13:41:41.919Z,1560
2017-04-01T13:42:54.678Z,1090
2017-04-01T13:44:07.435Z,1010
2017-04-01T13:45:20.686Z,1025
2017-04-01T13:46:33.907Z,1045
2017-04-01T13:47:47.162Z,1080
2017-04-01T13:49:00.389Z,1145
2017-04-01T13:50:12.633Z,1290
2017-04-01T13:51:25.894Z,1460
2017-04-01T13:52:38.664Z,1960
2017-04-01T13:53:50.872Z,1915
2017-04-01T13:55:04.119Z,3420
2017-04-01T13:56:16.865Z,2410
2017-04-01T13:57:30.133Z,3350
2017-04-01T13:58:43.355Z,2200
2017-04-01T13:59:55.565Z,2475
2017-04-01T14:01:08.283Z,1630
2017-04-01T14:02:21.531Z,2225
2017-04-01T14:03:34.744Z,2505
2017-04-01T14:04:47.479Z,1645
2017-04-01T14:05:59.718Z,2340
2017-04-01T14:07:13.003Z,2630
2017-04-01T14:08:25.754Z,2510
2017-04-01T14:09:38.472Z,2490
2017-04-01T14:10:51.217Z,2750
2017-04-01T14:12:04.431Z,1815
2017-04-01T14:13:17.700Z,1560
2017-04-01T14:14:30.399Z,1755
2017-04-01T14:15:43.166Z,3005
2017-04-01T14:16:56.419Z,3245
2017-04-01T14:18:09.640Z,4170
2017-04-01T14:19:21.881Z,1780
2017-04-01T14:20:34.657Z,1495
2017-04-01T14:21:47.947Z,3545
2017-04-01T14:23:01.198Z,1520
2017-04-01T14:24:14.476Z,1560
2017-04-01T14:25:27.717Z,3460
2017-04-01T14:26:40.964Z,3365
2017-04-01T14:27:54.201Z,3230
2017-04-01T14:29:06.932Z,1165
2017-04-01T14:30:20.186Z,2800
2017-04-01T14:31:33.424Z,2660
2017-04-01T14:32:46.683Z,2535
2017-04-01T14:33:59.925Z,2590
2017-04-01T14:35:13.203Z,2370
2017-04-01T14:36:26.457Z,2230
2017-04-01T14:37:38.172Z,2285
2017-04-01T14:38:50.905Z,2240
2017-04-01T14:40:03.150Z,2195
2017-04-01T14:41:15.927Z,2240
2017-04-01T14:42:28.657Z,2365
2017-04-01T14:43:41.394Z,2285
2017-04-01T14:44:54.656Z,2160
2017-04-01T14:46:07.924Z,2065
2017-04-01T14:47:21.180Z,1955
2017-04-01T14:48:34.422Z,1920
2017-04-01T14:49:47.126Z,1945
2017-04-01T14:51:00.376Z,1985
2017-04-01T14:52:13.597Z,2060
2017-04-01T14:53:25.849Z,2195
2017-04-01T14:54:39.100Z,2280
2017-04-01T14:55:52.344Z,2325
2017-04-01T14:57:05.583Z,2280
2017-04-01T14:58:18.807Z,2140
2017-04-01T14:59:31.015Z,2090
2017-04-01T15:00:44.225Z,2080
2017-04-01T15:01:57.459Z,2105
2017-04-01T15:03:10.664Z,2125
2017-04-01T15:04:23.883Z,2115
2017-04-01T15:05:36.623Z,2075
2017-04-01T15:06:49.352Z,2070
2017-04-01T15:08:02.058Z,2020
2017-04-01T15:09:15.319Z,2040
2017-04-01T15:10:27.547Z,2085
2017-04-01T15:11:40.800Z,2235
2017-04-01T15:12:54.041Z,1405
2017-04-01T15:14:07.281Z,2235
2017-04-01T15:15:20.025Z,1295
2017-04-01T15:16:33.288Z,2180
2017-04-01T15:17:46.027Z,2200
2017-04-01T15:18:59.289Z,2345
2017-04-01T15:20:12.040Z,1405
2017-04-01T15:21:24.757Z,1375
2017-04-01T15:22:37.997Z,2435
2017-04-01T15:23:50.741Z,1200
2017-04-01T15:25:03.986Z,2940
2017-04-01T15:26:16.736Z,3055
2017-04-01T15:27:29.460Z,3050
2017-04-01T15:28:42.722Z,1335
2017-04-01T15:29:55.947Z,1350
2017-04-01T15:31:08.696Z,1565
2017-04-01T15:32:21.963Z,1890
2017-04-01T15:33:34.701Z,1645
2017-04-01T15:34:47.928Z,1520
2017-04-01T15:36:01.150Z,1500
2017-04-01T15:37:13.890Z,1435
2017-04-01T15:38:26.629Z,1370
2017-04-01T15:39:39.856Z,1350
2017-04-01T15:40:53.066Z,1470
2017-04-01T15:42:05.791Z,1720
2017-04-01T15:43:19.107Z,1420
2017-04-01T15:44:32.355Z,1270
2017-04-01T15:45:45.640Z,1240
2017-04-01T15:46:58.873Z,1265
2017-04-01T15:48:12.145Z,1360
2017-04-01T15:49:25.378Z,1405
2017-04-01T15:50:38.624Z,1485
2017-04-01T15:51:51.861Z,1460
2017-04-01T15:53:05.072Z,1565
2017-04-01T15:54:18.294Z,2700
2017-04-01T15:55:31.568Z,3850
2017-04-01T15:56:44.821Z,3455
2017-04-01T15:57:57.551Z,2625
2017-04-01T15:59:10.264Z,3000
2017-04-01T16:00:22.974Z,2810
2017-04-01T16:01:36.216Z,2545
2017-04-01T16:02:48.941Z,2525
2017-04-01T16:04:02.151Z,2740
2017-04-01T16:05:15.351Z,2790
2017-04-01T16:06:28.070Z,2940
2017-04-01T16:07:41.293Z,3095
2017-04-01T16:08:54.502Z,2670
2017-04-01T16:10:07.260Z,2925
2017-04-01T16:11:20.522Z,2625
2017-04-01T16:12:33.255Z,2300
2017-04-01T16:13:45.974Z,2275
2017-04-01T16:14:58.670Z,2225
2017-04-01T16:16:11.945Z,2025
2017-04-01T16:17:24.679Z,1990
2017-04-01T16:18:37.410Z,2035
2017-04-01T16:19:50.669Z,1940
2017-04-01T16:21:03.885Z,1920
2017-04-01T16:22:17.094Z,2040
2017-04-01T16:23:29.840Z,1970
2017-04-01T16:24:43.066Z,1940
2017-04-01T16:25:56.304Z,2345
2017-04-01T16:27:09.049Z,2920
2017-04-01T16:28:22.265Z,3080
2017-04-01T16:29:35.526Z,2885
2017-04-01T16:30:48.779Z,3110
2017-04-01T16:32:02.022Z,2925
2017-04-01T16:33:15.278Z,2895
2017-04-01T16:34:28.005Z,2895
2017-04-01T16:35:40.206Z,3045
2017-04-01T16:36:53.455Z,2725
2017-04-01T16:38:06.686Z,2620
2017-04-01T16:39:19.931Z,3360
2017-04-01T16:40:33.151Z,3245
2017-04-01T16:41:46.413Z,3305
2017-04-01T16:42:59.143Z,2430
2017-04-01T16:44:11.858Z,2240
2017-04-01T16:45:24.576Z,2310
2017-04-01T16:46:36.785Z,750
2017-04-01T16:47:50.041Z,2375
2017-04-01T16:49:03.653Z,2800
2017-04-01T16:50:16.447Z,2960
2017-04-01T16:51:29.738Z,820
2017-04-01T16:52:43.002Z,2950
2017-04-01T16:53:56.263Z,3280
2017-04-01T16:55:09.525Z,3610
2017-04-01T16:56:22.749Z,1685
2017-04-01T16:57:36.010Z,2840
2017-04-01T16:58:49.283Z,890
2017-04-01T17:00:02.545Z,745
2017-04-01T17:01:15.815Z,715
2017-04-01T17:02:29.041Z,710
2017-04-01T17:03:42.288Z,665
2017-04-01T17:04:54.998Z,2315
2017-04-01T17:06:08.228Z,2175
2017-04-01T17:07:21.456Z,2200
2017-04-01T17:08:34.660Z,2170
2017-04-01T17:09:47.450Z,2115
2017-04-01T17:11:00.666Z,2125
2017-04-01T17:12:12.399Z,2095
2017-04-01T17:13:25.114Z,2495
2017-04-01T17:14:37.882Z,2815